Time;durP1;ratioP1;P1;durP2;ratioP2;P2;SDS_P1;SDS_P2;PMS_P1;PMS_P2;Temp;Humidity;BMP_temperature;BMP_pressure;BME280_temperature;BME280_humidity;BME280_pressure;Samples;Min_cycle;Max_cycle;Signal;HPM_P1;HPM_P2
2022/07/18 00:00:33;;;;;;;14.17;12.73;;;16.60;99.90;;;;;;5032994;28;20974;-67
2022/07/18 00:03:00;;;;;;;13.77;12.43;;;16.60;99.90;;;;;;5039797;28;20455;-67
2022/07/18 00:05:27;;;;;;;15.30;13.90;;;16.60;99.90;;;;;;5038326;28;20464;-67
2022/07/18 00:07:54;;;;;;;13.30;12.27;;;16.60;99.90;;;;;;5045918;28;20467;-66
2022/07/18 00:10:22;;;;;;;13.43;12.20;;;16.50;99.90;;;;;;5045434;28;20476;-67
2022/07/18 00:12:50;;;;;;;15.03;13.60;;;16.40;99.90;;;;;;5045237;28;20456;-66
2022/07/18 00:15:18;;;;;;;14.83;13.40;;;16.30;99.90;;;;;;5043391;28;20501;-66
2022/07/18 00:17:46;;;;;;;13.07;12.27;;;16.20;99.90;;;;;;5039264;28;20985;-66
2022/07/18 00:20:13;;;;;;;13.20;12.23;;;16.00;99.90;;;;;;5046511;28;20472;-67
2022/07/18 00:22:40;;;;;;;17.47;13.23;;;15.90;99.90;;;;;;5043043;28;20513;-67
2022/07/18 00:25:07;;;;;;;14.63;13.53;;;15.70;99.90;;;;;;5042040;28;20711;-66
2022/07/18 00:27:34;;;;;;;14.67;13.40;;;15.60;99.90;;;;;;5043749;28;20467;-66
2022/07/18 00:30:02;;;;;;;14.43;13.20;;;15.50;99.90;;;;;;5042799;28;20483;-66
2022/07/18 00:32:30;;;;;;;13.33;12.13;;;15.40;99.90;;;;;;5047768;28;20565;-66
2022/07/18 00:34:57;;;;;;;13.70;12.70;;;15.40;99.90;;;;;;5043395;28;20499;-67
2022/07/18 00:37:24;;;;;;;13.40;12.50;;;15.40;99.90;;;;;;5043746;28;20459;-66
2022/07/18 00:39:52;;;;;;;14.03;12.83;;;15.40;99.90;;;;;;5039876;28;20464;-67
2022/07/18 00:42:20;;;;;;;14.07;13.17;;;15.30;99.90;;;;;;5045308;28;20467;-67
2022/07/18 00:44:47;;;;;;;14.80;13.50;;;15.20;99.90;;;;;;5044394;28;20472;-67
2022/07/18 00:47:14;;;;;;;14.20;12.67;;;15.10;99.90;;;;;;5043754;28;20494;-67
2022/07/18 00:49:42;;;;;;;13.50;12.50;;;15.00;99.90;;;;;;5042612;28;20456;-67
2022/07/18 00:52:09;;;;;;;13.17;12.20;;;15.10;99.90;;;;;;5044567;28;20566;-67
2022/07/18 00:54:36;;;;;;;13.30;12.07;;;15.10;99.90;;;;;;5044308;28;20487;-67
2022/07/18 00:57:04;;;;;;;13.83;12.83;;;15.00;99.90;;;;;;5038424;28;20479;-67
2022/07/18 01:02:17;;;;;;;13.90;12.80;;;15.00;99.90;;;;;;5047601;28;21131;-67
2022/07/18 01:04:45;;;;;;;14.20;12.57;;;14.90;99.90;;;;;;5047243;28;20460;-66
2022/07/18 01:07:13;;;;;;;13.73;12.73;;;14.70;99.90;;;;;;5042778;28;20467;-66
2022/07/18 01:09:40;;;;;;;15.03;12.47;;;14.70;99.90;;;;;;5043361;28;20955;-66
2022/07/18 01:12:08;;;;;;;13.40;12.13;;;14.50;99.90;;;;;;5045447;28;20915;-66
2022/07/18 01:14:37;;;;;;;13.17;12.37;;;14.40;99.90;;;;;;5032613;28;21237;-66
2022/07/18 01:17:12;;;;;;;14.03;13.07;;;14.30;99.90;;;;;;5045083;28;20551;-67
2022/07/18 01:19:38;;;;;;;13.07;12.27;;;14.20;99.90;;;;;;5043604;28;20464;-67
2022/07/18 01:22:07;;;;;;;12.37;11.67;;;14.20;99.90;;;;;;5043230;28;20456;-66
2022/07/18 01:24:34;;;;;;;13.60;12.67;;;14.10;99.90;;;;;;5037498;28;20556;-66
2022/07/18 01:27:01;;;;;;;13.03;12.33;;;14.10;99.90;;;;;;5039746;28;20467;-66
2022/07/18 01:29:28;;;;;;;13.33;11.90;;;14.10;99.90;;;;;;5042393;28;20847;-66
2022/07/18 01:31:55;;;;;;;12.83;11.90;;;14.10;99.90;;;;;;5038040;28;20463;-66
2022/07/18 01:34:23;;;;;;;12.70;11.60;;;14.00;99.90;;;;;;5036500;28;20460;-66
2022/07/18 01:36:51;;;;;;;12.27;11.67;;;14.00;99.90;;;;;;5040482;28;20474;-67
2022/07/18 01:39:19;;;;;;;13.43;12.33;;;13.90;99.90;;;;;;5038425;28;21049;-68
2022/07/18 01:41:46;;;;;;;13.30;11.53;;;13.90;99.90;;;;;;5044195;28;20476;-68
2022/07/18 01:44:13;;;;;;;13.47;12.47;;;13.90;99.90;;;;;;5042810;28;20467;-68
2022/07/18 01:46:39;;;;;;;12.73;11.90;;;13.90;99.90;;;;;;5037685;28;20469;-68
2022/07/18 01:49:08;;;;;;;12.60;11.50;;;13.90;99.90;;;;;;5042173;28;20820;-69
2022/07/18 01:51:34;;;;;;;17.27;11.27;;;13.90;99.90;;;;;;5038710;28;20553;-69
2022/07/18 01:54:02;;;;;;;12.53;11.50;;;13.90;99.90;;;;;;5044458;28;20472;-68
2022/07/18 01:56:31;;;;;;;12.80;11.03;;;13.90;99.90;;;;;;5042721;28;20492;-68
2022/07/18 01:58:57;;;;;;;11.23;10.63;;;13.90;99.90;;;;;;5042620;28;20471;-68
2022/07/18 02:01:24;;;;;;;12.23;11.23;;;13.80;99.90;;;;;;5038918;28;20473;-68
2022/07/18 02:03:51;;;;;;;15.97;12.20;;;13.70;99.90;;;;;;5034671;28;20464;-68
2022/07/18 02:06:18;;;;;;;11.80;11.00;;;13.70;99.90;;;;;;5039890;28;20475;-68
2022/07/18 02:08:45;;;;;;;12.33;11.53;;;13.60;99.90;;;;;;5038535;28;21318;-68
2022/07/18 02:11:11;;;;;;;12.10;11.07;;;13.50;99.90;;;;;;5048460;28;20895;-69
2022/07/18 02:13:40;;;;;;;13.40;12.00;;;13.50;99.90;;;;;;5036435;28;20471;-68
2022/07/18 02:16:07;;;;;;;12.03;11.10;;;13.50;99.90;;;;;;5038532;28;20787;-69
2022/07/18 02:18:34;;;;;;;15.53;12.33;;;13.50;99.90;;;;;;5042136;28;20465;-68
2022/07/18 02:21:02;;;;;;;16.03;11.03;;;13.50;99.90;;;;;;5039549;28;20460;-68
2022/07/18 02:23:29;;;;;;;11.57;10.67;;;13.40;99.90;;;;;;5036240;28;20467;-68
2022/07/18 02:25:57;;;;;;;11.33;10.60;;;13.40;99.90;;;;;;5045989;28;20647;-68
2022/07/18 02:28:24;;;;;;;11.77;10.97;;;13.40;99.90;;;;;;5041449;28;20464;-68
2022/07/18 02:30:53;;;;;;;12.37;11.40;;;13.40;99.90;;;;;;5037432;28;20463;-68
2022/07/18 02:33:20;;;;;;;12.30;11.10;;;13.40;99.90;;;;;;5039029;28;20479;-68
2022/07/18 02:35:48;;;;;;;17.80;11.67;;;13.40;99.90;;;;;;5041977;28;20495;-68
2022/07/18 02:38:15;;;;;;;11.80;10.80;;;13.40;99.90;;;;;;5044557;28;20464;-68
2022/07/18 02:40:42;;;;;;;11.20;10.20;;;13.40;99.90;;;;;;5040216;28;20459;-68
2022/07/18 02:43:09;;;;;;;12.53;11.40;;;13.40;99.90;;;;;;5036720;28;20470;-68
2022/07/18 02:45:36;;;;;;;11.53;10.40;;;13.40;99.90;;;;;;5043027;28;20479;-69
2022/07/18 02:48:04;;;;;;;12.27;11.53;;;13.40;99.90;;;;;;5038394;28;20551;-68
2022/07/18 02:50:33;;;;;;;11.17;10.47;;;13.30;99.90;;;;;;5045255;28;20455;-68
2022/07/18 02:53:00;;;;;;;14.07;10.77;;;13.30;99.90;;;;;;5039246;28;20476;-68
2022/07/18 02:55:27;;;;;;;11.50;10.43;;;13.30;99.90;;;;;;5039283;28;20475;-68
2022/07/18 03:00:35;;;;;;;11.83;10.93;;;13.40;99.90;;;;;;5041695;28;20843;-68
2022/07/18 03:03:02;;;;;;;14.83;10.30;;;13.40;99.90;;;;;;5037637;28;20469;-68
2022/07/18 03:05:32;;;;;;;10.80;10.20;;;13.40;99.90;;;;;;5041499;28;20471;-68
2022/07/18 03:07:59;;;;;;;11.10;10.20;;;13.50;99.90;;;;;;5034948;28;20470;-68
2022/07/18 03:10:25;;;;;;;12.30;10.23;;;13.50;99.90;;;;;;5042830;28;20471;-69
2022/07/18 03:12:52;;;;;;;14.00;9.97;;;13.50;99.90;;;;;;5039417;28;20475;-68
2022/07/18 03:15:19;;;;;;;11.53;10.53;;;13.60;99.90;;;;;;5040256;28;20491;-68
2022/07/18 03:17:48;;;;;;;10.57;9.77;;;13.50;99.90;;;;;;5037633;28;20461;-68
2022/07/18 03:20:15;;;;;;;11.40;10.50;;;13.50;99.90;;;;;;5038601;28;20467;-68
2022/07/18 03:22:43;;;;;;;12.47;11.23;;;13.50;99.90;;;;;;5041087;28;20475;-68
2022/07/18 03:25:10;;;;;;;13.70;10.73;;;13.50;99.90;;;;;;5038734;28;20460;-68
2022/07/18 03:27:37;;;;;;;12.47;11.30;;;13.40;99.90;;;;;;5033307;28;20471;-68
2022/07/18 03:30:04;;;;;;;12.20;11.47;;;13.50;99.90;;;;;;5037463;28;20538;-68
2022/07/18 03:32:31;;;;;;;12.30;11.37;;;13.50;99.90;;;;;;5038734;28;20469;-68
2022/07/18 03:34:58;;;;;;;11.97;10.90;;;13.40;99.90;;;;;;5039042;28;20475;-69
2022/07/18 03:37:25;;;;;;;11.20;10.50;;;13.50;99.90;;;;;;5036490;28;20471;-68
2022/07/18 03:39:53;;;;;;;10.80;10.10;;;13.50;99.90;;;;;;5038728;28;20464;-68
2022/07/18 03:42:20;;;;;;;12.50;11.27;;;13.50;99.90;;;;;;5038369;28;20471;-68
2022/07/18 03:44:47;;;;;;;12.77;10.90;;;13.40;99.90;;;;;;5042496;28;20962;-68
2022/07/18 03:47:16;;;;;;;12.23;11.40;;;13.50;99.90;;;;;;5041202;28;20461;-68
2022/07/18 03:49:43;;;;;;;13.53;12.13;;;13.50;99.90;;;;;;5035886;28;20510;-69
2022/07/18 03:52:11;;;;;;;12.97;11.97;;;13.50;99.90;;;;;;5042793;28;20518;-68
2022/07/18 03:54:37;;;;;;;15.00;12.13;;;13.50;99.90;;;;;;5039757;28;20468;-68
2022/07/18 03:57:06;;;;;;;19.33;12.63;;;13.50;99.90;;;;;;5037730;28;20495;-68
2022/07/18 03:59:33;;;;;;;20.77;12.20;;;13.50;99.90;;;;;;5041345;28;20770;-68
2022/07/18 04:02:00;;;;;;;15.80;12.60;;;13.60;99.90;;;;;;5027928;28;20461;-68
2022/07/18 04:04:26;;;;;;;13.87;12.13;;;13.60;99.90;;;;;;5016228;28;20840;-68
2022/07/18 04:06:54;;;;;;;17.13;12.70;;;13.70;99.90;;;;;;5011497;28;20468;-68
2022/07/18 04:09:21;;;;;;;14.17;11.83;;;13.70;99.90;;;;;;5014152;28;20471;-69
2022/07/18 04:11:48;;;;;;;13.97;12.30;;;13.70;99.90;;;;;;5012848;28;20680;-69
2022/07/18 04:14:16;;;;;;;14.20;13.20;;;13.70;99.90;;;;;;5014972;28;20468;-68
2022/07/18 04:16:43;;;;;;;13.30;11.93;;;13.60;99.90;;;;;;5016231;28;20487;-69
2022/07/18 04:19:10;;;;;;;20.10;13.30;;;13.60;99.90;;;;;;5014813;28;21015;-69
2022/07/18 04:21:37;;;;;;;16.60;12.80;;;13.60;99.90;;;;;;5015488;28;20519;-68
2022/07/18 04:24:04;;;;;;;14.93;12.90;;;13.70;99.90;;;;;;5014967;28;20468;-69
2022/07/18 04:26:31;;;;;;;16.30;12.47;;;13.70;99.90;;;;;;5013603;28;22326;-69
2022/07/18 04:28:59;;;;;;;13.93;12.50;;;13.70;99.90;;;;;;5013944;28;20463;-68
2022/07/18 04:31:27;;;;;;;14.03;12.77;;;13.70;99.90;;;;;;5038890;28;20498;-68
2022/07/18 04:33:54;;;;;;;16.07;12.50;;;13.70;99.90;;;;;;5032857;28;21411;-68
2022/07/18 04:36:21;;;;;;;13.40;12.00;;;13.80;99.90;;;;;;5034874;28;20491;-68
2022/07/18 04:38:47;;;;;;;15.63;14.10;;;13.90;99.90;;;;;;5022383;28;20839;-68
2022/07/18 04:41:16;;;;;;;17.40;12.43;;;13.90;99.90;;;;;;5012265;28;20468;-68
2022/07/18 04:43:43;;;;;;;18.07;12.50;;;14.00;99.90;;;;;;5014615;28;20842;-69
2022/07/18 04:48:52;;;;;;;13.20;11.90;;;14.30;99.90;;;;;;5014237;28;20473;-68
2022/07/18 04:51:20;;;;;;;15.27;13.70;;;14.40;99.90;;;;;;5014087;28;20472;-68
2022/07/18 04:53:48;;;;;;;14.87;13.47;;;14.50;99.90;;;;;;5017536;28;20463;-68
2022/07/18 04:56:14;;;;;;;17.80;13.40;;;14.70;99.90;;;;;;5018922;28;20495;-68
2022/07/18 04:58:41;;;;;;;16.90;12.60;;;14.80;99.90;;;;;;5019292;28;20519;-68
2022/07/18 05:01:08;;;;;;;32.30;13.90;;;14.90;99.90;;;;;;5017977;28;20476;-69
2022/07/18 05:03:35;;;;;;;21.03;14.00;;;15.00;99.90;;;;;;5018053;28;20471;-68
2022/07/18 05:06:03;;;;;;;22.77;13.87;;;15.20;99.90;;;;;;5018777;28;20471;-68
2022/07/18 05:08:30;;;;;;;25.30;14.07;;;15.50;99.90;;;;;;5018446;28;20517;-69
2022/07/18 05:10:57;;;;;;;21.83;13.50;;;15.70;99.90;;;;;;5018580;28;21048;-69
2022/07/18 05:13:24;;;;;;;17.60;14.20;;;15.90;99.90;;;;;;5019658;28;20481;-68
2022/07/18 05:15:51;;;;;;;31.83;15.63;;;16.10;99.90;;;;;;5017514;28;21093;-69
2022/07/18 05:18:17;;;;;;;27.20;16.00;;;16.40;99.90;;;;;;5018675;28;20471;-68
2022/07/18 05:20:45;;;;;;;46.73;15.33;;;16.60;99.90;;;;;;5018414;28;20464;-70
2022/07/18 05:23:15;;;;;;;52.80;19.17;;;16.80;99.90;;;;;;5017281;28;20508;-69
2022/07/18 05:25:43;;;;;;;46.30;15.67;;;16.90;99.90;;;;;;5021521;28;20577;-69
2022/07/18 05:28:09;;;;;;;27.53;15.23;;;17.10;99.90;;;;;;5043139;28;20475;-69
2022/07/18 05:30:37;;;;;;;34.87;16.00;;;17.20;99.90;;;;;;5040616;28;20912;-68
2022/07/18 05:33:05;;;;;;;22.60;15.07;;;17.30;99.90;;;;;;5019205;28;20836;-69
2022/07/18 05:35:32;;;;;;;19.53;15.40;;;17.50;99.90;;;;;;5017766;28;20789;-68
2022/07/18 05:37:59;;;;;;;36.33;17.10;;;17.60;99.90;;;;;;5017735;28;20484;-69
2022/07/18 05:40:27;;;;;;;45.33;15.43;;;17.80;99.90;;;;;;5017621;28;20472;-69
2022/07/18 05:42:54;;;;;;;27.40;15.00;;;17.90;99.90;;;;;;5017825;28;21071;-69
2022/07/18 05:45:22;;;;;;;32.80;15.90;;;18.10;99.90;;;;;;5017973;28;20474;-69
2022/07/18 05:47:49;;;;;;;29.30;15.50;;;18.20;99.90;;;;;;5017369;28;21105;-69
2022/07/18 05:50:16;;;;;;;17.33;15.50;;;18.40;99.90;;;;;;5018241;28;20460;-68
2022/07/18 05:52:43;;;;;;;18.33;14.60;;;18.50;99.90;;;;;;5017981;28;20885;-68
2022/07/18 05:55:12;;;;;;;30.43;15.33;;;18.70;99.90;;;;;;5015817;28;20487;-70
2022/07/18 05:57:40;;;;;;;26.03;15.60;;;18.90;99.90;;;;;;5018215;28;20528;-69
2022/07/18 06:00:09;;;;;;;23.20;15.87;;;19.10;99.90;;;;;;5017150;28;20995;-70
2022/07/18 06:02:37;;;;;;;22.73;15.10;;;19.30;99.90;;;;;;5015244;28;20495;-70
2022/07/18 06:05:04;;;;;;;29.33;15.00;;;19.40;99.90;;;;;;5014845;28;20767;-69
2022/07/18 06:07:31;;;;;;;27.43;15.90;;;19.60;99.90;;;;;;5016441;28;20475;-69
2022/07/18 06:09:58;;;;;;;30.03;16.47;;;19.80;99.90;;;;;;5015688;28;20943;-70
2022/07/18 06:12:25;;;;;;;37.27;15.97;;;20.00;99.90;;;;;;5016371;28;20463;-69
2022/07/18 06:14:53;;;;;;;37.97;17.17;;;20.10;99.90;;;;;;5039534;28;20476;-69
2022/07/18 06:17:20;;;;;;;49.50;16.83;;;20.30;99.90;;;;;;5035179;28;20603;-67
2022/07/18 06:19:47;;;;;;;40.93;17.27;;;20.50;99.90;;;;;;5015828;28;20453;-67
2022/07/18 06:22:14;;;;;;;49.83;18.10;;;20.70;99.90;;;;;;5016276;28;20468;-68
2022/07/18 06:24:40;;;;;;;50.23;17.87;;;20.80;99.90;;;;;;5016531;28;20468;-67
2022/07/18 06:27:07;;;;;;;26.00;17.30;;;20.90;99.90;;;;;;5016784;28;20475;-67
2022/07/18 06:29:34;;;;;;;30.43;16.40;;;21.00;99.90;;;;;;5015645;28;20832;-67
2022/07/18 06:32:03;;;;;;;40.70;16.80;;;21.10;99.90;;;;;;5016036;28;20470;-67
2022/07/18 06:34:30;;;;;;;27.77;16.57;;;21.30;99.90;;;;;;5015527;28;22538;-67
2022/07/18 06:36:57;;;;;;;34.43;16.70;;;21.60;99.90;;;;;;5016348;28;20500;-67
2022/07/18 06:39:23;;;;;;;51.97;17.00;;;21.80;99.90;;;;;;5015670;28;21081;-67
2022/07/18 06:41:51;;;;;;;37.93;17.00;;;22.00;99.90;;;;;;5015475;28;21096;-67
2022/07/18 06:44:18;;;;;;;38.73;15.90;;;22.00;99.90;;;;;;5015582;28;20492;-67
2022/07/18 06:46:45;;;;;;;30.97;16.97;;;22.20;99.90;;;;;;5015417;28;20966;-67
2022/07/18 06:49:15;;;;;;;31.60;16.43;;;22.20;99.00;;;;;;5015788;28;20471;-67
2022/07/18 06:51:42;;;;;;;19.33;16.00;;;22.20;98.50;;;;;;5015000;28;20467;-68
2022/07/18 06:54:09;;;;;;;25.23;15.83;;;22.30;98.60;;;;;;5010876;28;20781;-70
2022/07/18 06:56:36;;;;;;;22.73;15.67;;;22.40;97.80;;;;;;5008118;28;20500;-68
2022/07/18 06:59:03;;;;;;;17.40;15.53;;;22.50;97.30;;;;;;5009532;28;20899;-67
2022/07/18 07:01:30;;;;;;;19.87;16.43;;;22.50;96.80;;;;;;5009764;28;21444;-67
2022/07/18 07:03:56;;;;;;;25.87;15.37;;;22.70;96.40;;;;;;5009039;28;20465;-67
2022/07/18 07:06:25;;;;;;;22.63;16.10;;;22.80;95.60;;;;;;5007219;28;20469;-67
2022/07/18 07:08:52;;;;;;;26.70;15.63;;;23.00;95.20;;;;;;5009728;28;21757;-68
2022/07/18 07:11:18;;;;;;;34.57;16.60;;;23.10;95.30;;;;;;5007647;28;20464;-67
2022/07/18 07:13:45;;;;;;;17.53;15.70;;;23.40;95.70;;;;;;5008878;28;20459;-67
2022/07/18 07:16:12;;;;;;;26.43;15.80;;;23.60;94.00;;;;;;5006090;28;20498;-68
2022/07/18 07:18:40;;;;;;;24.77;15.80;;;23.90;93.40;;;;;;5009244;28;20989;-67
2022/07/18 07:21:08;;;;;;;18.20;16.20;;;24.00;92.90;;;;;;5030946;28;20467;-67
2022/07/18 07:23:36;;;;;;;20.30;16.23;;;24.00;91.30;;;;;;5025705;28;20514;-68
2022/07/18 07:26:03;;;;;;;25.47;15.93;;;23.80;91.50;;;;;;5010412;28;20554;-68
2022/07/18 07:28:29;;;;;;;22.23;15.90;;;24.00;91.40;;;;;;5005119;28;20465;-67
2022/07/18 07:30:56;;;;;;;24.10;15.53;;;24.20;90.90;;;;;;5009936;28;20495;-69
2022/07/18 07:33:23;;;;;;;30.17;16.10;;;24.20;90.40;;;;;;5006899;28;20880;-69
2022/07/18 07:35:50;;;;;;;27.93;15.70;;;24.30;90.00;;;;;;5007304;28;20484;-70
2022/07/18 07:38:19;;;;;;;23.40;14.80;;;24.40;89.80;;;;;;5010157;28;21022;-67
2022/07/18 07:40:48;;;;;;;21.80;16.30;;;24.60;88.90;;;;;;5005057;28;20471;-67
2022/07/18 07:43:17;;;;;;;16.80;14.97;;;24.60;87.90;;;;;;5009778;28;20508;-68
2022/07/18 07:45:48;;;;;;;18.10;16.33;;;24.80;87.60;;;;;;5019932;28;20464;-67
2022/07/18 07:48:16;;;;;;;22.97;15.97;;;25.10;86.60;;;;;;5037031;28;20459;-68
2022/07/18 07:50:43;;;;;;;22.70;14.87;;;25.30;84.30;;;;;;5009098;28;20488;-67
2022/07/18 07:53:10;;;;;;;29.13;15.87;;;25.40;83.00;;;;;;5008212;28;20468;-68
2022/07/18 07:55:37;;;;;;;21.40;15.57;;;25.60;81.30;;;;;;5008678;28;20471;-66
2022/07/18 07:58:06;;;;;;;19.00;15.27;;;25.60;79.60;;;;;;5005896;28;20895;-68
2022/07/18 08:00:33;;;;;;;20.17;16.30;;;25.70;79.90;;;;;;5009615;28;20457;-67
2022/07/18 08:03:02;;;;;;;23.17;15.70;;;25.90;79.60;;;;;;5023228;28;20467;-68
2022/07/18 08:05:30;;;;;;;23.13;15.40;;;26.10;75.40;;;;;;5027239;28;20462;-67
2022/07/18 08:07:57;;;;;;;16.57;14.90;;;26.30;76.20;;;;;;5031133;28;20977;-68
2022/07/18 08:10:25;;;;;;;17.80;15.60;;;26.50;74.80;;;;;;5020786;28;21026;-68
2022/07/18 08:12:52;;;;;;;21.97;16.00;;;26.80;71.40;;;;;;5031136;28;20471;-68
2022/07/18 08:15:20;;;;;;;24.67;15.40;;;26.70;70.20;;;;;;5015920;28;20499;-68
2022/07/18 08:17:47;;;;;;;19.10;16.37;;;26.80;69.00;;;;;;5027363;28;20488;-68
2022/07/18 08:20:16;;;;;;;20.47;15.70;;;27.20;66.70;;;;;;5004542;28;20472;-68
2022/07/18 08:22:57;;;;;;;21.53;15.57;;;27.60;69.20;;;;;;5005390;28;20544;-68
2022/07/18 08:25:24;;;;;;;16.47;14.93;;;28.20;63.40;;;;;;5024299;28;20828;-68
2022/07/18 08:27:51;;;;;;;21.70;16.50;;;29.20;62.10;;;;;;5021351;28;20476;-68
2022/07/18 08:30:20;;;;;;;18.27;16.50;;;29.90;59.80;;;;;;5037690;28;20998;-68
2022/07/18 08:32:47;;;;;;;17.60;15.90;;;30.50;53.90;;;;;;5022825;28;20608;-68
2022/07/18 08:35:15;;;;;;;17.20;15.70;;;30.90;51.70;;;;;;5013406;28;20537;-68
2022/07/18 08:37:42;;;;;;;22.90;16.50;;;31.80;50.70;;;;;;5010594;28;20867;-68
2022/07/18 08:40:09;;;;;;;23.47;16.20;;;32.20;48.70;;;;;;5006497;28;20461;-68
2022/07/18 08:42:37;;;;;;;18.70;16.60;;;32.60;46.30;;;;;;5010817;28;20467;-68
2022/07/18 08:45:05;;;;;;;16.03;14.70;;;32.60;45.10;;;;;;5007090;28;20467;-68
2022/07/18 08:47:34;;;;;;;29.67;15.80;;;32.40;44.10;;;;;;5009016;28;20461;-68
2022/07/18 08:50:02;;;;;;;16.60;15.00;;;33.40;43.80;;;;;;5034501;28;20502;-68
2022/07/18 08:52:30;;;;;;;17.03;15.23;;;33.90;41.40;;;;;;5016710;28;20899;-68
2022/07/18 08:54:57;;;;;;;19.43;15.30;;;34.60;41.00;;;;;;5009945;28;20627;-68
2022/07/18 08:57:24;;;;;;;17.60;15.40;;;34.60;38.80;;;;;;5023088;28;20488;-68
2022/07/18 08:59:51;;;;;;;20.97;15.80;;;35.30;37.60;;;;;;5015953;28;20829;-69
2022/07/18 09:02:18;;;;;;;23.57;15.87;;;35.70;36.20;;;;;;5012861;28;20475;-69
2022/07/18 09:04:46;;;;;;;16.70;15.10;;;35.30;36.50;;;;;;5012824;28;21065;-68
2022/07/18 09:07:24;;;;;;;17.00;15.30;;;35.40;34.70;;;;;;5012258;28;20789;-68
2022/07/18 09:09:54;;;;;;;20.70;15.30;;;35.20;34.20;;;;;;5012544;28;20511;-69
2022/07/18 09:12:21;;;;;;;16.50;14.80;;;35.30;34.10;;;;;;5014716;28;20451;-69
2022/07/18 09:14:48;;;;;;;19.03;14.97;;;35.50;34.10;;;;;;5011287;28;20452;-70
2022/07/18 09:17:17;;;;;;;16.77;15.07;;;36.00;33.50;;;;;;5013757;28;21126;-68
2022/07/18 09:20:01;;;;;;;16.60;15.37;;;36.60;33.10;;;;;;5012030;28;21146;-68
2022/07/18 09:22:30;;;;;;;16.90;15.53;;;35.70;32.10;;;;;;5011088;28;20793;-69
2022/07/18 09:25:05;;;;;;;16.10;15.00;;;35.90;33.20;;;;;;5013007;28;20455;-68
2022/07/18 09:27:34;;;;;;;16.30;14.90;;;37.10;32.10;;;;;;5010264;28;20463;-69
2022/07/18 09:30:17;;;;;;;20.10;15.47;;;37.60;30.50;;;;;;5005143;28;20464;-69
2022/07/18 09:32:46;;;;;;;15.90;14.47;;;37.80;30.00;;;;;;5009291;28;20505;-69
2022/07/18 09:35:16;;;;;;;16.27;14.70;;;37.90;30.00;;;;;;5008718;28;22289;-69
2022/07/18 09:37:54;;;;;;;15.90;14.70;;;38.20;29.00;;;;;;5009225;28;20511;-69
2022/07/18 09:40:23;;;;;;;17.83;15.20;;;38.60;29.10;;;;;;5007979;28;20461;-69
2022/07/18 09:42:52;;;;;;;16.53;14.90;;;38.40;29.00;;;;;;5010049;28;20839;-68
2022/07/18 09:45:24;;;;;;;17.43;15.30;;;38.50;28.10;;;;;;5008590;28;20474;-69
2022/07/18 09:47:54;;;;;;;16.33;15.30;;;38.70;27.90;;;;;;5011073;28;20488;-69
2022/07/18 09:50:25;;;;;;;16.67;15.33;;;38.10;28.00;;;;;;5009806;28;21109;-68
2022/07/18 09:53:04;;;;;;;16.00;14.77;;;38.10;28.10;;;;;;5009833;28;20488;-69
2022/07/18 09:55:32;;;;;;;15.10;14.40;;;38.40;27.70;;;;;;5009946;28;20480;-69
2022/07/18 09:58:01;;;;;;;15.20;14.20;;;38.80;26.10;;;;;;5010867;28;21465;-69
2022/07/18 10:00:47;;;;;;;15.70;14.70;;;38.80;25.80;;;;;;5009841;28;20456;-69
2022/07/18 10:03:14;;;;;;;15.00;14.20;;;38.20;26.60;;;;;;5010368;28;21299;-69
2022/07/18 10:05:44;;;;;;;15.60;14.80;;;37.90;26.90;;;;;;5008791;28;20469;-69
2022/07/18 10:08:15;;;;;;;15.90;15.03;;;37.80;26.90;;;;;;5010326;28;20515;-69
2022/07/18 10:10:43;;;;;;;15.63;14.80;;;37.30;26.70;;;;;;5009353;28;20560;-68
2022/07/18 10:13:11;;;;;;;16.73;15.57;;;37.60;26.70;;;;;;5008451;28;21146;-69
2022/07/18 10:15:40;;;;;;;16.43;15.00;;;37.70;25.90;;;;;;5010611;28;20990;-69
2022/07/18 10:18:08;;;;;;;15.03;14.30;;;37.70;26.30;;;;;;5010822;28;20504;-69
2022/07/18 10:20:38;;;;;;;15.80;15.10;;;37.60;26.20;;;;;;5010398;28;20622;-69
2022/07/18 10:23:15;;;;;;;16.00;15.10;;;37.30;26.10;;;;;;5010847;28;20476;-69
2022/07/18 10:25:43;;;;;;;15.33;14.63;;;37.30;25.80;;;;;;5009375;28;20468;-69
2022/07/18 10:28:12;;;;;;;42.27;15.43;;;37.60;25.80;;;;;;5011360;28;20791;-69
2022/07/18 10:30:46;;;;;;;15.43;14.50;;;37.50;26.20;;;;;;5010808;28;20472;-69
2022/07/18 10:33:41;;;;;;;15.07;13.97;;;37.80;26.20;;;;;;5010797;28;20594;-69
2022/07/18 10:36:10;;;;;;;15.50;14.57;;;37.50;26.40;;;;;;5011147;28;20806;-69
2022/07/18 10:38:40;;;;;;;15.23;14.63;;;38.00;25.60;;;;;;5009204;28;20503;-69
2022/07/18 10:41:12;;;;;;;17.73;15.40;;;38.10;25.50;;;;;;5009485;28;20556;-69
2022/07/18 10:43:41;;;;;;;16.20;15.10;;;37.70;26.10;;;;;;5010381;28;20460;-69
2022/07/18 10:46:09;;;;;;;15.57;14.77;;;38.40;25.80;;;;;;5009833;28;21149;-69
2022/07/18 10:48:57;;;;;;;16.17;15.00;;;38.70;26.20;;;;;;5010758;28;20538;-69
2022/07/18 10:51:31;;;;;;;15.80;15.00;;;39.00;26.00;;;;;;5009482;28;20465;-69
2022/07/18 10:54:11;;;;;;;15.30;14.40;;;39.40;25.30;;;;;;5010658;28;20498;-69
2022/07/18 10:57:11;;;;;;;14.57;13.87;;;39.10;25.20;;;;;;5009130;28;20467;-69
2022/07/18 10:59:59;;;;;;;15.03;14.33;;;38.40;25.20;;;;;;5010007;28;20846;-69
2022/07/18 11:02:33;;;;;;;15.37;14.57;;;38.50;24.80;;;;;;5009733;28;20464;-69
2022/07/18 11:05:00;;;;;;;15.90;14.90;;;39.00;25.20;;;;;;5009963;28;20883;-69
2022/07/18 11:07:27;;;;;;;15.90;14.97;;;38.60;25.30;;;;;;5008842;28;21072;-69
2022/07/18 11:09:55;;;;;;;16.20;15.20;;;38.30;25.70;;;;;;5008271;28;20575;-69
2022/07/18 11:12:24;;;;;;;16.93;15.70;;;38.30;26.20;;;;;;5028068;28;21017;-68
2022/07/18 11:15:12;;;;;;;16.20;15.40;;;39.20;26.10;;;;;;5031347;28;20830;-70
2022/07/18 11:18:02;;;;;;;16.10;15.20;;;38.50;25.70;;;;;;5030830;28;20472;-69
2022/07/18 11:20:41;;;;;;;14.37;13.67;;;39.00;25.20;;;;;;5009655;28;20482;-69
2022/07/18 11:23:19;;;;;;;15.60;14.80;;;40.00;24.80;;;;;;5037206;28;20464;-69
2022/07/18 11:25:50;;;;;;;16.63;15.60;;;40.00;24.50;;;;;;5031370;28;20475;-69
2022/07/18 11:28:18;;;;;;;16.43;15.30;;;40.20;25.40;;;;;;5030372;28;20457;-69
2022/07/18 11:30:45;;;;;;;16.00;14.90;;;40.80;24.60;;;;;;5028731;28;20483;-69
2022/07/18 11:33:25;;;;;;;16.00;14.73;;;40.90;24.40;;;;;;5008553;28;20464;-69
2022/07/18 11:35:52;;;;;;;15.53;14.63;;;41.10;24.60;;;;;;5010035;28;20535;-70
2022/07/18 11:38:19;;;;;;;14.67;13.80;;;42.10;24.40;;;;;;5003234;28;20467;-69
2022/07/18 11:40:52;;;;;;;14.77;14.07;;;42.20;23.40;;;;;;5008419;28;20986;-69
2022/07/18 11:43:26;;;;;;;15.23;14.17;;;41.10;23.60;;;;;;5009172;28;20961;-70
2022/07/18 11:46:01;;;;;;;13.63;13.00;;;41.60;24.00;;;;;;5008651;28;20628;-69
2022/07/18 11:48:28;;;;;;;14.60;13.90;;;42.20;23.10;;;;;;5009130;28;20494;-69
2022/07/18 11:50:56;;;;;;;15.10;13.90;;;41.80;23.10;;;;;;5008892;28;20849;-70
2022/07/18 11:53:23;;;;;;;15.00;13.70;;;40.80;23.50;;;;;;5009639;28;20513;-70
2022/07/18 11:55:53;;;;;;;14.77;13.40;;;40.90;23.70;;;;;;5009055;28;21215;-69
2022/07/18 11:58:20;;;;;;;14.20;13.50;;;41.90;23.10;;;;;;5010654;28;20491;-70
2022/07/18 12:00:47;;;;;;;14.27;13.60;;;42.60;23.40;;;;;;5009066;28;21233;-69
2022/07/18 12:03:15;;;;;;;14.30;13.40;;;42.80;23.00;;;;;;5012843;28;20469;-69
2022/07/18 12:05:44;;;;;;;13.50;12.87;;;43.80;22.80;;;;;;5014256;28;20553;-70
2022/07/18 12:08:34;;;;;;;13.60;13.00;;;44.10;22.10;;;;;;5013802;28;20486;-69
2022/07/18 12:11:14;;;;;;;14.00;13.27;;;42.90;22.10;;;;;;5012499;28;20459;-70
2022/07/18 12:13:57;;;;;;;14.10;13.20;;;42.10;22.70;;;;;;5012619;28;20547;-69
2022/07/18 12:16:33;;;;;;;14.20;13.50;;;42.20;22.40;;;;;;5011318;28;20495;-70
2022/07/18 12:19:05;;;;;;;14.40;13.50;;;41.80;22.60;;;;;;5011743;28;20555;-70
2022/07/18 12:21:44;;;;;;;14.20;13.40;;;41.60;23.20;;;;;;5011105;28;20514;-70
2022/07/18 12:24:24;;;;;;;13.60;12.90;;;42.40;22.70;;;;;;5012933;28;21264;-70
2022/07/18 12:27:13;;;;;;;13.50;12.70;;;42.70;22.30;;;;;;5010022;28;20467;-69
2022/07/18 12:30:05;;;;;;;14.03;13.27;;;43.40;22.00;;;;;;5012142;28;20502;-70
2022/07/18 12:32:40;;;;;;;14.43;13.40;;;43.20;22.00;;;;;;5012930;28;20867;-69
2022/07/18 12:35:08;;;;;;;13.40;12.73;;;41.90;22.10;;;;;;5012128;28;20843;-70
2022/07/18 12:37:36;;;;;;;13.60;12.90;;;41.80;23.00;;;;;;5012341;28;20559;-69
2022/07/18 12:40:06;;;;;;;13.23;12.63;;;41.80;22.80;;;;;;5012652;28;21407;-69
2022/07/18 12:42:36;;;;;;;14.60;13.47;;;41.20;22.90;;;;;;5012410;28;20511;-69
2022/07/18 12:45:05;;;;;;;14.10;13.40;;;40.80;23.10;;;;;;5017585;28;20498;-70